Time;durP1;ratioP1;P1;durP2;ratioP2;P2;SDS_P1;SDS_P2;PMS_P1;PMS_P2;Temp;Humidity;BMP_temperature;BMP_pressure;BME280_temperature;BME280_humidity;BME280_pressure;Samples;Min_cycle;Max_cycle;Signal;HPM_P1;HPM_P2
2023/07/25 00:01:25;;;;;;;4.68;0.90;;;13.70;99.90;;;;;;4984641;28;20534;-34
2023/07/25 00:03:50;;;;;;;4.97;1.23;;;13.70;99.90;;;;;;4983347;28;21333;-34
2023/07/25 00:06:17;;;;;;;5.72;1.35;;;13.70;99.90;;;;;;4986128;28;20050;-34
2023/07/25 00:08:43;;;;;;;5.40;1.10;;;13.70;99.90;;;;;;4981573;28;20547;-34
2023/07/25 00:11:13;;;;;;;3.53;1.00;;;13.60;99.90;;;;;;4983360;28;20050;-34
2023/07/25 00:13:39;;;;;;;2.15;0.60;;;13.60;99.90;;;;;;4982203;28;20050;-34
2023/07/25 00:16:04;;;;;;;3.15;1.13;;;13.50;99.90;;;;;;4984608;28;20065;-34
2023/07/25 00:18:30;;;;;;;3.33;0.80;;;13.50;99.90;;;;;;4978796;28;20503;-34
2023/07/25 00:20:55;;;;;;;5.50;1.60;;;13.50;99.90;;;;;;4982662;28;20149;-34
2023/07/25 00:23:21;;;;;;;7.68;1.52;;;13.50;99.90;;;;;;4980793;28;20480;-34
2023/07/25 00:25:47;;;;;;;3.03;0.70;;;13.50;99.90;;;;;;4977784;28;20046;-34
2023/07/25 00:28:12;;;;;;;4.50;1.08;;;13.50;99.90;;;;;;4983880;28;20054;-34
2023/07/25 00:30:39;;;;;;;5.03;0.80;;;13.50;99.90;;;;;;4984112;28;20061;-34
2023/07/25 00:33:05;;;;;;;2.90;0.90;;;13.50;99.90;;;;;;4984374;28;20077;-35
2023/07/25 00:35:31;;;;;;;3.45;0.80;;;13.50;99.90;;;;;;4981234;28;20105;-35
2023/07/25 00:37:57;;;;;;;4.50;0.90;;;13.40;99.90;;;;;;4984205;28;20410;-35
2023/07/25 00:40:22;;;;;;;4.18;0.98;;;13.40;99.90;;;;;;4983646;28;20446;-34
2023/07/25 00:42:56;;;;;;;4.18;0.73;;;13.40;99.90;;;;;;4982278;28;20058;-35
2023/07/25 00:45:24;;;;;;;3.60;0.90;;;13.40;99.90;;;;;;4982187;28;20838;-35
2023/07/25 00:47:50;;;;;;;2.60;1.23;;;13.40;99.90;;;;;;4984387;28;20402;-35
2023/07/25 00:50:15;;;;;;;3.92;1.02;;;13.40;99.90;;;;;;4985100;28;20784;-35
2023/07/25 00:52:41;;;;;;;4.40;1.02;;;13.40;99.90;;;;;;4981969;28;20128;-35
2023/07/25 00:55:07;;;;;;;3.85;0.90;;;13.30;99.90;;;;;;4980564;28;20062;-35
2023/07/25 00:57:33;;;;;;;6.68;1.17;;;13.30;99.90;;;;;;4983796;28;20046;-35
2023/07/25 00:59:58;;;;;;;6.60;1.33;;;13.30;99.90;;;;;;4984819;28;20443;-35
2023/07/25 01:02:25;;;;;;;4.57;0.80;;;13.30;99.90;;;;;;4983482;28;20156;-35
2023/07/25 01:04:50;;;;;;;4.40;0.80;;;13.30;99.90;;;;;;4978078;28;20058;-35
2023/07/25 01:07:17;;;;;;;7.78;1.75;;;13.30;99.90;;;;;;4983355;28;20062;-35
2023/07/25 01:09:45;;;;;;;4.25;1.05;;;13.30;99.90;;;;;;4983680;28;20120;-35
2023/07/25 01:12:12;;;;;;;5.93;1.10;;;13.30;99.90;;;;;;4981553;28;20504;-35
2023/07/25 01:14:39;;;;;;;2.55;0.88;;;13.30;99.90;;;;;;4980465;28;20047;-35
2023/07/25 01:17:17;;;;;;;2.85;1.05;;;13.30;99.90;;;;;;4979659;28;20061;-34
2023/07/25 01:19:44;;;;;;;3.85;1.00;;;13.30;99.90;;;;;;4975628;28;20073;-35
2023/07/25 01:22:10;;;;;;;4.93;0.95;;;13.30;99.90;;;;;;4980937;28;20116;-35
2023/07/25 01:24:41;;;;;;;4.90;1.50;;;13.30;99.90;;;;;;4979686;28;20057;-35
2023/07/25 01:27:06;;;;;;;3.13;1.00;;;13.20;99.90;;;;;;4977849;28;20495;-35
2023/07/25 01:29:32;;;;;;;3.40;0.80;;;13.20;99.90;;;;;;4980170;28;20046;-35
2023/07/25 01:31:58;;;;;;;3.10;1.02;;;13.10;99.90;;;;;;4978660;28;20100;-35
2023/07/25 01:34:23;;;;;;;7.47;1.52;;;13.00;99.90;;;;;;4981368;28;20050;-35
2023/07/25 01:36:49;;;;;;;3.13;0.80;;;13.00;99.90;;;;;;4982734;28;20112;-34
2023/07/25 01:39:15;;;;;;;3.45;0.80;;;12.90;99.90;;;;;;4984088;28;20153;-34
2023/07/25 01:41:41;;;;;;;4.15;0.90;;;12.90;99.90;;;;;;4979945;28;20142;-34
2023/07/25 01:44:07;;;;;;;2.42;0.85;;;12.90;99.90;;;;;;4982822;28;20089;-35
2023/07/25 01:46:33;;;;;;;2.97;0.80;;;12.80;99.90;;;;;;4981011;28;20557;-34
2023/07/25 01:48:59;;;;;;;6.68;1.20;;;12.90;99.90;;;;;;4976705;28;20061;-34
2023/07/25 01:51:25;;;;;;;2.83;0.88;;;12.90;99.90;;;;;;4978957;28;20053;-35
2023/07/25 01:53:53;;;;;;;3.10;1.15;;;12.90;99.90;;;;;;4981774;28;20046;-34
2023/07/25 01:56:19;;;;;;;6.30;1.55;;;12.90;99.90;;;;;;4978941;28;20073;-35
2023/07/25 01:58:45;;;;;;;2.40;1.02;;;12.90;99.90;;;;;;4984679;28;20092;-35
2023/07/25 02:01:11;;;;;;;2.60;0.98;;;12.90;99.90;;;;;;4977989;28;20774;-34
2023/07/25 02:03:36;;;;;;;3.15;0.88;;;12.90;99.90;;;;;;4980611;28;20093;-34
2023/07/25 02:06:03;;;;;;;4.55;1.20;;;12.90;99.90;;;;;;4983575;28;20164;-35
2023/07/25 02:08:29;;;;;;;5.88;1.05;;;13.00;99.90;;;;;;4984737;28;20838;-35
2023/07/25 02:10:55;;;;;;;2.78;0.95;;;13.00;99.90;;;;;;4981484;28;20050;-34
2023/07/25 02:13:20;;;;;;;4.13;1.38;;;13.00;99.90;;;;;;4986001;28;20458;-35
2023/07/25 02:15:46;;;;;;;3.13;0.80;;;13.10;99.90;;;;;;4985563;28;20062;-34
2023/07/25 02:18:12;;;;;;;6.20;1.75;;;13.10;99.90;;;;;;4982288;28;20046;-35
2023/07/25 02:20:38;;;;;;;3.28;0.75;;;13.10;99.90;;;;;;4981890;28;20054;-35
2023/07/25 02:23:03;;;;;;;6.95;0.95;;;13.10;99.90;;;;;;4987068;28;20108;-35
2023/07/25 02:25:29;;;;;;;4.40;1.05;;;13.10;99.90;;;;;;4985076;28;20057;-35
2023/07/25 02:27:55;;;;;;;4.70;0.63;;;13.20;99.90;;;;;;4986736;28;20050;-34
2023/07/25 02:30:21;;;;;;;3.17;0.90;;;13.20;99.90;;;;;;4986762;28;20062;-34
2023/07/25 02:32:47;;;;;;;2.88;0.98;;;13.20;99.90;;;;;;4983058;28;20070;-35
2023/07/25 02:35:14;;;;;;;2.88;0.90;;;13.20;99.90;;;;;;4981516;28;20534;-34
2023/07/25 02:37:42;;;;;;;2.97;1.10;;;13.30;99.90;;;;;;4984274;28;20050;-34
2023/07/25 02:40:09;;;;;;;3.30;1.00;;;13.30;99.90;;;;;;4986499;28;20121;-35
2023/07/25 02:42:34;;;;;;;3.05;0.90;;;13.30;99.90;;;;;;4984864;28;20050;-35
2023/07/25 02:45:00;;;;;;;4.63;1.00;;;13.30;99.90;;;;;;4979669;28;20492;-35
2023/07/25 02:47:26;;;;;;;4.25;1.00;;;13.30;99.90;;;;;;4985518;28;20575;-35
2023/07/25 02:49:51;;;;;;;4.78;1.00;;;13.40;99.90;;;;;;4986952;28;20419;-35
2023/07/25 02:52:17;;;;;;;4.63;1.02;;;13.40;99.90;;;;;;4985277;28;20081;-35
2023/07/25 02:54:43;;;;;;;3.33;0.80;;;13.40;99.90;;;;;;4985902;28;20046;-34
2023/07/25 02:57:09;;;;;;;6.30;1.10;;;13.40;99.90;;;;;;4984246;28;20476;-35
2023/07/25 02:59:35;;;;;;;3.08;1.20;;;13.30;99.90;;;;;;4985348;28;20480;-35
2023/07/25 03:02:00;;;;;;;4.45;0.85;;;13.40;99.90;;;;;;4985129;28;20050;-34
2023/07/25 03:04:26;;;;;;;4.53;0.98;;;13.30;99.90;;;;;;4985258;28;20488;-35
2023/07/25 03:06:52;;;;;;;5.43;1.00;;;13.30;99.90;;;;;;4981471;28;20138;-34
2023/07/25 03:09:17;;;;;;;4.00;0.90;;;13.40;99.90;;;;;;4983834;28;20117;-35
2023/07/25 03:11:43;;;;;;;3.97;0.93;;;13.40;99.90;;;;;;4966433;28;20165;-34
2023/07/25 03:14:08;;;;;;;3.17;0.82;;;13.40;99.90;;;;;;4971839;28;20043;-34
2023/07/25 03:16:34;;;;;;;3.47;1.05;;;13.40;99.90;;;;;;4985087;28;20046;-35
2023/07/25 03:19:00;;;;;;;2.72;0.77;;;13.50;99.90;;;;;;4986291;28;20046;-34
2023/07/25 03:21:26;;;;;;;5.18;1.10;;;13.50;99.90;;;;;;4982273;28;20046;-34
2023/07/25 03:23:51;;;;;;;3.75;1.00;;;13.60;99.90;;;;;;4983386;28;20523;-35
2023/07/25 03:26:17;;;;;;;4.03;0.85;;;13.60;99.90;;;;;;4986738;28;20093;-35
2023/07/25 03:28:43;;;;;;;4.35;1.17;;;13.60;99.90;;;;;;4987593;28;20150;-34
2023/07/25 03:31:08;;;;;;;7.68;1.70;;;13.70;99.90;;;;;;4980719;28;20057;-35
2023/07/25 03:33:34;;;;;;;3.13;1.00;;;13.70;99.90;;;;;;4984752;28;20142;-35
2023/07/25 03:36:00;;;;;;;4.78;1.13;;;13.70;99.90;;;;;;4981836;28;20054;-34
2023/07/25 03:38:25;;;;;;;3.17;0.82;;;13.70;99.90;;;;;;4983193;28;20077;-34
2023/07/25 03:40:51;;;;;;;6.15;1.10;;;13.70;99.90;;;;;;4980523;28;20133;-35
2023/07/25 03:43:17;;;;;;;4.43;0.90;;;13.70;99.90;;;;;;4981789;28;20133;-35
2023/07/25 03:45:42;;;;;;;4.13;1.10;;;13.70;99.90;;;;;;4982302;28;20050;-35
2023/07/25 03:48:09;;;;;;;3.90;0.82;;;13.70;99.90;;;;;;4981518;28;20066;-35
2023/07/25 03:50:34;;;;;;;4.40;1.10;;;13.70;99.90;;;;;;4983953;28;20054;-35
2023/07/25 03:53:01;;;;;;;6.45;0.95;;;13.80;99.90;;;;;;4984513;28;20065;-35
2023/07/25 03:55:27;;;;;;;2.90;1.10;;;13.80;99.90;;;;;;4982461;28;20180;-35
2023/07/25 03:57:54;;;;;;;3.75;1.00;;;13.90;99.90;;;;;;4981443;28;20888;-35
2023/07/25 04:00:19;;;;;;;3.08;1.02;;;13.90;99.90;;;;;;4984210;28;20054;-35
2023/07/25 04:02:45;;;;;;;5.15;1.10;;;13.90;99.90;;;;;;4984699;28;20080;-35
2023/07/25 04:05:11;;;;;;;4.22;1.27;;;13.90;99.90;;;;;;4984309;28;20096;-35
2023/07/25 04:07:36;;;;;;;7.05;1.10;;;13.90;99.90;;;;;;4983925;28;20069;-34
2023/07/25 04:10:03;;;;;;;2.63;0.77;;;13.90;99.90;;;;;;4987944;28;20042;-35
2023/07/25 04:12:28;;;;;;;3.80;1.10;;;13.90;99.90;;;;;;4983980;28;21446;-35
2023/07/25 04:14:54;;;;;;;2.88;0.80;;;13.90;99.90;;;;;;4978913;28;20046;-34
2023/07/25 04:17:20;;;;;;;5.15;1.38;;;13.90;99.90;;;;;;4982738;28;20046;-35
2023/07/25 04:19:45;;;;;;;4.97;1.10;;;14.00;99.90;;;;;;4985600;28;20050;-35
2023/07/25 04:22:11;;;;;;;4.13;0.90;;;14.00;99.90;;;;;;4986129;28;20447;-35
2023/07/25 04:24:37;;;;;;;5.53;1.40;;;14.00;99.90;;;;;;4986943;28;20050;-34
2023/07/25 04:27:03;;;;;;;5.70;1.15;;;14.00;99.90;;;;;;4983344;28;20050;-35
2023/07/25 04:29:28;;;;;;;4.40;1.23;;;14.00;99.90;;;;;;4985408;28;20109;-35
2023/07/25 04:31:54;;;;;;;3.10;0.77;;;14.00;99.90;;;;;;4982795;28;20492;-34
2023/07/25 04:34:20;;;;;;;6.30;0.95;;;14.00;99.90;;;;;;4981230;28;20375;-35
2023/07/25 04:36:45;;;;;;;7.35;1.17;;;14.10;99.90;;;;;;4981183;28;20054;-35
2023/07/25 04:39:11;;;;;;;5.35;1.10;;;14.10;99.90;;;;;;4982368;28;20084;-34
2023/07/25 04:41:36;;;;;;;5.43;0.80;;;14.10;99.90;;;;;;4983194;28;20189;-34
2023/07/25 04:44:02;;;;;;;5.93;0.90;;;14.10;99.90;;;;;;4979760;28;20097;-34
2023/07/25 04:46:29;;;;;;;1.83;0.55;;;14.10;99.90;;;;;;4980837;28;20499;-34
2023/07/25 04:48:56;;;;;;;3.85;0.80;;;14.10;99.90;;;;;;4982462;28;20050;-35
2023/07/25 04:51:21;;;;;;;4.93;0.95;;;14.10;99.90;;;;;;4978734;28;20090;-34
2023/07/25 04:53:47;;;;;;;6.25;0.80;;;14.20;99.90;;;;;;4983342;28;20457;-35
2023/07/25 04:56:13;;;;;;;4.30;1.00;;;14.10;99.90;;;;;;4980922;28;20054;-34
2023/07/25 04:58:40;;;;;;;3.70;0.80;;;14.10;99.90;;;;;;4983381;28;20061;-35
2023/07/25 05:01:07;;;;;;;5.35;1.10;;;14.10;99.90;;;;;;4981332;28;20059;-35
2023/07/25 05:03:33;;;;;;;3.67;0.95;;;14.10;99.90;;;;;;4983436;28;20082;-35
2023/07/25 05:05:59;;;;;;;5.95;0.88;;;14.10;99.90;;;;;;4984037;28;20133;-35
2023/07/25 05:08:24;;;;;;;3.90;1.08;;;14.10;99.90;;;;;;4983558;28;20149;-35
2023/07/25 05:10:52;;;;;;;4.90;0.90;;;14.10;99.90;;;;;;4987329;28;20804;-35
2023/07/25 05:13:18;;;;;;;3.95;0.98;;;14.10;99.90;;;;;;4975720;28;20042;-35
2023/07/25 05:15:44;;;;;;;4.18;0.73;;;14.10;99.90;;;;;;4981902;28;20077;-34
2023/07/25 05:18:09;;;;;;;5.47;0.90;;;14.10;99.90;;;;;;4980958;28;20488;-35
2023/07/25 05:20:35;;;;;;;7.28;0.95;;;14.10;99.90;;;;;;4980867;28;20061;-35
2023/07/25 05:23:01;;;;;;;5.25;1.00;;;14.20;99.90;;;;;;4983710;28;20591;-35
2023/07/25 05:25:26;;;;;;;3.40;0.77;;;14.40;99.90;;;;;;4978358;28;20058;-35
2023/07/25 05:27:52;;;;;;;3.03;1.02;;;14.50;99.90;;;;;;4983673;28;20054;-35
2023/07/25 05:30:17;;;;;;;2.10;1.27;;;14.60;99.90;;;;;;4979099;28;20050;-34
2023/07/25 05:32:43;;;;;;;4.68;0.82;;;14.70;99.90;;;;;;4981663;28;20050;-35
2023/07/25 05:35:09;;;;;;;4.53;0.80;;;14.80;99.90;;;;;;4984207;28;20047;-34
2023/07/25 05:37:39;;;;;;;4.97;0.95;;;14.80;99.90;;;;;;4979632;28;20503;-35
2023/07/25 05:40:06;;;;;;;4.07;1.00;;;14.80;99.90;;;;;;4981875;28;20411;-35
2023/07/25 05:42:33;;;;;;;6.63;0.80;;;14.80;99.90;;;;;;4976382;28;20133;-35
2023/07/25 05:45:02;;;;;;;4.63;1.30;;;14.80;99.90;;;;;;4980558;28;20093;-35
2023/07/25 05:47:28;;;;;;;4.10;0.93;;;14.80;99.90;;;;;;4980083;28;20054;-35
2023/07/25 05:49:55;;;;;;;4.10;0.88;;;14.70;99.90;;;;;;4980063;28;20054;-34
2023/07/25 05:52:20;;;;;;;4.10;0.90;;;14.80;99.90;;;;;;4981409;28;20046;-34
2023/07/25 05:54:46;;;;;;;3.08;0.95;;;14.80;99.90;;;;;;4984242;28;20396;-33
2023/07/25 05:57:12;;;;;;;5.68;0.80;;;14.80;99.90;;;;;;4979516;28;20050;-34
2023/07/25 05:59:40;;;;;;;3.28;0.65;;;14.80;99.90;;;;;;4979759;28;20049;-34
2023/07/25 06:02:07;;;;;;;4.07;0.70;;;14.90;99.90;;;;;;4972243;28;20740;-34
2023/07/25 06:04:33;;;;;;;5.15;0.60;;;14.90;99.90;;;;;;4977871;28;20077;-34
2023/07/25 06:06:58;;;;;;;2.53;0.63;;;14.90;99.90;;;;;;4977547;28;20046;-35
2023/07/25 06:09:24;;;;;;;6.53;0.95;;;14.90;99.90;;;;;;4979823;28;20488;-35
2023/07/25 06:11:49;;;;;;;4.95;0.82;;;14.90;99.90;;;;;;4979607;28;20046;-35
2023/07/25 06:14:15;;;;;;;1.92;0.75;;;15.00;99.90;;;;;;4977630;28;20670;-35
2023/07/25 06:16:41;;;;;;;5.28;0.85;;;15.00;99.90;;;;;;4978034;28;20070;-34
2023/07/25 06:19:06;;;;;;;4.18;0.60;;;15.00;99.90;;;;;;4976663;28;20042;-35
2023/07/25 06:21:32;;;;;;;6.65;1.45;;;15.00;99.90;;;;;;4969559;28;20169;-35
2023/07/25 06:23:58;;;;;;;4.65;0.70;;;15.10;99.90;;;;;;4980326;28;20039;-35
2023/07/25 06:26:24;;;;;;;5.78;1.23;;;15.10;99.90;;;;;;4981335;28;20042;-34
2023/07/25 06:28:51;;;;;;;4.25;0.93;;;15.20;99.90;;;;;;4980519;28;20077;-35
2023/07/25 06:31:17;;;;;;;4.05;0.47;;;15.10;99.90;;;;;;4979371;28;20057;-35
2023/07/25 06:33:42;;;;;;;3.72;0.63;;;15.20;99.90;;;;;;4981189;28;20046;-35
2023/07/25 06:36:08;;;;;;;3.95;0.95;;;15.20;99.90;;;;;;4980240;28;20260;-35
2023/07/25 06:38:34;;;;;;;5.07;0.55;;;15.30;99.90;;;;;;4973046;28;20070;-35
2023/07/25 06:40:59;;;;;;;6.70;0.80;;;15.30;99.90;;;;;;4982790;28;20054;-35
2023/07/25 06:43:25;;;;;;;4.50;0.43;;;15.30;99.90;;;;;;4984789;28;20057;-34
2023/07/25 06:45:51;;;;;;;4.18;1.42;;;15.30;99.90;;;;;;4981557;28;20101;-35
2023/07/25 06:48:17;;;;;;;5.05;0.95;;;15.30;99.90;;;;;;4983291;28;20184;-35
2023/07/25 06:50:43;;;;;;;5.68;0.80;;;15.40;99.90;;;;;;4982170;28;20047;-35
2023/07/25 06:53:09;;;;;;;3.42;0.65;;;15.60;99.90;;;;;;4986042;28;20085;-35
2023/07/25 06:55:36;;;;;;;3.30;0.60;;;15.70;99.90;;;;;;4979855;28;20105;-34
2023/07/25 06:58:02;;;;;;;5.97;0.50;;;15.80;99.90;;;;;;4987391;28;20538;-35
2023/07/25 07:00:28;;;;;;;3.30;0.30;;;15.90;99.90;;;;;;4984890;28;20046;-34
2023/07/25 07:02:54;;;;;;;1.77;0.30;;;16.00;99.90;;;;;;4983401;28;20053;-34
2023/07/25 07:05:19;;;;;;;9.00;0.40;;;16.00;99.90;;;;;;4986557;28;20399;-35
2023/07/25 07:07:45;;;;;;;2.65;0.90;;;16.10;99.90;;;;;;4975213;28;20042;-35
2023/07/25 07:10:11;;;;;;;4.55;0.50;;;16.20;99.90;;;;;;4987478;28;20084;-35
2023/07/25 07:12:42;;;;;;;2.30;0.40;;;16.20;99.90;;;;;;4985272;28;20467;-35
2023/07/25 07:15:08;;;;;;;1.40;0.30;;;16.30;99.90;;;;;;4980113;28;20488;-34
2023/07/25 07:17:33;;;;;;;2.35;0.60;;;16.40;99.90;;;;;;4985940;28;20061;-34
2023/07/25 07:20:00;;;;;;;1.65;0.30;;;16.40;99.90;;;;;;4981328;28;20116;-34
2023/07/25 07:22:26;;;;;;;2.25;0.20;;;16.40;99.90;;;;;;4979739;28;20146;-34
2023/07/25 07:24:51;;;;;;;1.23;0.20;;;16.40;99.90;;;;;;4988035;28;20149;-34
2023/07/25 07:27:19;;;;;;;0.93;0.20;;;16.50;99.90;;;;;;4986343;28;20157;-34
2023/07/25 07:29:45;;;;;;;2.50;0.30;;;16.60;99.90;;;;;;4986296;28;20055;-34
2023/07/25 07:32:11;;;;;;;2.92;0.57;;;16.60;99.90;;;;;;4986207;28;20069;-34
2023/07/25 07:34:36;;;;;;;1.85;0.20;;;16.70;99.90;;;;;;4981506;28;20046;-34
2023/07/25 07:37:02;;;;;;;7.43;0.82;;;16.70;99.90;;;;;;4984289;28;20058;-34
2023/07/25 07:39:28;;;;;;;1.65;0.22;;;16.80;99.90;;;;;;4989316;28;20045;-34
2023/07/25 07:41:53;;;;;;;1.23;0.20;;;16.90;99.90;;;;;;4983710;28;20113;-34
2023/07/25 07:44:19;;;;;;;0.82;0.40;;;17.10;99.90;;;;;;4986387;28;20550;-34
2023/07/25 07:46:44;;;;;;;2.35;0.30;;;17.20;99.90;;;;;;4986060;28;20047;-34
2023/07/25 07:49:10;;;;;;;1.65;0.28;;;17.10;99.90;;;;;;4983636;28;20094;-34
2023/07/25 07:51:36;;;;;;;0.73;0.20;;;16.90;99.90;;;;;;4980602;28;20042;-34
2023/07/25 07:54:01;;;;;;;3.70;0.30;;;16.90;99.90;;;;;;4983983;28;20371;-34
2023/07/25 07:56:27;;;;;;;1.17;0.20;;;16.90;99.90;;;;;;4980564;28;20050;-34
2023/07/25 07:58:52;;;;;;;2.50;0.20;;;16.90;99.90;;;;;;4981269;28;20078;-35
2023/07/25 08:01:21;;;;;;;6.15;0.60;;;17.00;99.90;;;;;;4981420;28;20130;-34
2023/07/25 08:03:47;;;;;;;1.23;0.40;;;17.10;99.90;;;;;;4980546;28;20046;-34
2023/07/25 08:06:13;;;;;;;1.40;0.20;;;17.20;99.90;;;;;;4982757;28;20064;-34
2023/07/25 08:08:40;;;;;;;1.55;0.20;;;17.30;99.90;;;;;;4985052;28;20484;-34
2023/07/25 08:11:06;;;;;;;2.15;0.20;;;17.20;99.90;;;;;;4979902;28;20062;-34
2023/07/25 08:13:32;;;;;;;0.88;0.30;;;17.20;99.90;;;;;;4985696;28;20057;-34
2023/07/25 08:15:58;;;;;;;2.78;0.45;;;17.20;99.90;;;;;;4983355;28;20054;-34
2023/07/25 08:18:23;;;;;;;3.08;0.28;;;17.40;99.90;;;;;;4983353;28;20050;-34
2023/07/25 08:20:59;;;;;;;1.08;0.38;;;17.50;99.90;;;;;;4977790;28;20055;-34
2023/07/25 08:23:26;;;;;;;2.58;0.17;;;17.80;99.90;;;;;;4982163;28;20101;-34
2023/07/25 08:25:53;;;;;;;2.50;0.30;;;17.90;99.90;;;;;;4978920;28;20100;-34
2023/07/25 08:28:19;;;;;;;1.13;0.20;;;18.00;99.90;;;;;;4988115;28;20046;-34
2023/07/25 08:30:45;;;;;;;2.42;0.40;;;18.00;99.90;;;;;;4978399;28;20054;-34
2023/07/25 08:33:15;;;;;;;0.73;0.25;;;18.10;99.90;;;;;;4982319;28;20133;-34
2023/07/25 08:35:41;;;;;;;1.15;0.25;;;18.20;99.90;;;;;;4973625;28;20385;-34
2023/07/25 08:38:07;;;;;;;2.45;0.30;;;18.20;99.90;;;;;;4981158;28;20054;-34
2023/07/25 08:40:33;;;;;;;3.47;0.40;;;18.30;99.90;;;;;;4981605;28;20692;-34
2023/07/25 08:43:06;;;;;;;0.63;0.20;;;18.40;99.90;;;;;;4980741;28;20699;-34
2023/07/25 08:45:33;;;;;;;1.63;0.30;;;18.40;99.90;;;;;;4980639;28;20057;-34
2023/07/25 08:48:10;;;;;;;3.85;0.50;;;18.30;99.90;;;;;;4981138;28;20061;-34
2023/07/25 08:50:38;;;;;;;1.83;0.40;;;18.40;99.90;;;;;;4979598;28;20075;-34
2023/07/25 08:53:10;;;;;;;1.02;0.22;;;18.70;99.90;;;;;;4984752;28;20050;-34
2023/07/25 08:55:35;;;;;;;3.63;0.25;;;18.90;99.90;;;;;;4967717;28;20485;-34
2023/07/25 08:58:02;;;;;;;2.15;0.28;;;19.00;99.90;;;;;;4981755;28;20055;-34
2023/07/25 09:00:28;;;;;;;2.63;0.30;;;18.80;99.90;;;;;;4983681;28;20420;-34
2023/07/25 09:02:54;;;;;;;2.05;0.20;;;18.60;99.90;;;;;;4976754;28;20050;-34
2023/07/25 09:05:21;;;;;;;1.92;0.30;;;18.60;99.90;;;;;;4984364;28;20112;-34
2023/07/25 09:07:48;;;;;;;2.65;0.30;;;18.70;99.90;;;;;;4980488;28;20480;-34
2023/07/25 09:10:13;;;;;;;1.10;0.30;;;18.80;99.90;;;;;;4986060;28;20117;-34
2023/07/25 09:12:39;;;;;;;2.55;0.30;;;19.00;99.90;;;;;;4982084;28;20127;-34
2023/07/25 09:15:05;;;;;;;2.50;0.38;;;19.00;99.90;;;;;;4983370;28;20143;-34
2023/07/25 09:17:31;;;;;;;1.15;0.40;;;19.00;99.90;;;;;;4984228;28;20038;-34
2023/07/25 09:19:57;;;;;;;5.07;0.30;;;18.90;99.90;;;;;;4982606;28;20503;-34
2023/07/25 09:22:30;;;;;;;2.85;0.30;;;18.90;99.90;;;;;;4982357;28;20523;-34
2023/07/25 09:24:57;;;;;;;1.75;0.22;;;19.00;99.90;;;;;;4979821;28;20046;-34
2023/07/25 09:27:24;;;;;;;1.05;0.30;;;19.20;99.90;;;;;;4984156;28;20133;-33
2023/07/25 09:29:51;;;;;;;1.92;0.38;;;19.40;99.90;;;;;;4984156;28;20042;-34
2023/07/25 09:32:22;;;;;;;2.92;0.40;;;19.40;99.90;;;;;;4978577;28;20077;-34
2023/07/25 09:35:06;;;;;;;1.23;0.30;;;19.50;99.90;;;;;;4981288;28;20049;-34
2023/07/25 09:37:32;;;;;;;2.40;0.40;;;19.40;99.90;;;;;;4982786;28;20496;-34
2023/07/25 09:39:58;;;;;;;4.65;0.32;;;19.30;99.90;;;;;;4979686;28;20050;-34
2023/07/25 09:42:25;;;;;;;3.45;0.40;;;19.40;99.90;;;;;;4982858;28;20085;-34
2023/07/25 09:44:52;;;;;;;1.85;0.20;;;19.50;99.90;;;;;;4975849;28;20117;-34
2023/07/25 09:47:25;;;;;;;5.53;0.30;;;19.80;99.90;;;;;;4980535;28;20054;-34
2023/07/25 09:49:52;;;;;;;3.72;0.43;;;20.00;99.90;;;;;;4982224;28;20381;-34
2023/07/25 09:52:18;;;;;;;0.90;0.20;;;20.20;99.90;;;;;;4980443;28;20050;-34
2023/07/25 09:54:44;;;;;;;2.53;0.30;;;20.20;99.90;;;;;;4982214;28;20534;-33
2023/07/25 09:57:10;;;;;;;2.67;0.88;;;20.10;99.90;;;;;;4984537;28;20467;-34
2023/07/25 09:59:36;;;;;;;2.60;0.40;;;20.00;99.90;;;;;;4984404;28;20047;-34
2023/07/25 10:02:03;;;;;;;1.95;0.30;;;19.90;99.90;;;;;;4983152;28;20046;-34
2023/07/25 10:04:30;;;;;;;2.47;0.40;;;19.60;99.90;;;;;;4980536;28;20092;-34
2023/07/25 10:06:59;;;;;;;2.97;0.40;;;19.50;99.90;;;;;;4984767;28;20038;-34
2023/07/25 10:09:25;;;;;;;0.40;0.20;;;19.50;99.90;;;;;;4984424;28;20431;-34
2023/07/25 10:11:52;;;;;;;2.33;0.40;;;19.60;99.90;;;;;;4982184;28;21374;-35
2023/07/25 10:14:19;;;;;;;0.50;0.20;;;19.80;99.90;;;;;;4999700;28;20389;-34
2023/07/25 10:16:45;;;;;;;1.35;0.30;;;19.90;99.90;;;;;;4979853;28;20057;-35
2023/07/25 10:19:11;;;;;;;5.97;0.28;;;20.10;99.90;;;;;;4967583;28;20054;-34
2023/07/25 10:21:51;;;;;;;1.33;0.20;;;20.20;99.90;;;;;;4980187;28;20083;-34
2023/07/25 10:24:18;;;;;;;0.88;0.20;;;20.30;99.90;;;;;;4982015;28;20135;-35
2023/07/25 10:26:58;;;;;;;2.70;0.30;;;20.50;99.90;;;;;;4987024;28;20422;-34
2023/07/25 10:29:38;;;;;;;1.42;0.30;;;20.60;99.90;;;;;;4988285;28;20054;-34
2023/07/25 10:32:04;;;;;;;1.95;0.32;;;20.60;99.90;;;;;;4982676;28;20398;-34
2023/07/25 10:34:47;;;;;;;2.35;0.20;;;20.60;99.90;;;;;;4983071;28;20053;-34
2023/07/25 10:37:30;;;;;;;1.08;0.30;;;20.40;99.90;;;;;;4987287;28;20069;-33
2023/07/25 10:40:08;;;;;;;1.98;0.30;;;20.20;99.90;;;;;;4989157;28;20058;-34
2023/07/25 10:42:47;;;;;;;2.38;0.25;;;20.10;99.90;;;;;;4987846;28;20065;-33
2023/07/25 10:45:44;;;;;;;0.98;0.28;;;20.00;99.90;;;;;;4986544;28;20061;-34
2023/07/25 10:48:28;;;;;;;2.92;0.40;;;20.00;99.90;;;;;;4984019;28;21469;-34
2023/07/25 10:50:54;;;;;;;2.40;0.20;;;20.10;99.90;;;;;;4989620;28;20054;-34
2023/07/25 10:53:21;;;;;;;1.27;0.20;;;20.20;99.90;;;;;;4983921;28;20049;-33
2023/07/25 10:56:06;;;;;;;0.70;0.20;;;20.30;99.90;;;;;;4988368;28;20057;-33
2023/07/25 10:59:00;;;;;;;0.70;0.40;;;20.50;99.90;;;;;;4984780;28;20058;-34
2023/07/25 11:01:34;;;;;;;3.33;0.30;;;20.50;99.90;;;;;;4982467;28;20117;-33
2023/07/25 11:04:21;;;;;;;1.98;0.20;;;20.50;99.90;;;;;;4983214;28;20153;-34
2023/07/25 11:06:51;;;;;;;2.17;0.40;;;20.70;99.90;;;;;;4986403;28;20499;-34
2023/07/25 11:09:17;;;;;;;1.05;0.28;;;20.90;99.90;;;;;;4983748;28;20051;-34
2023/07/25 11:11:47;;;;;;;3.60;0.30;;;21.00;99.90;;;;;;4986840;28;20216;-34
2023/07/25 11:14:15;;;;;;;1.02;0.20;;;21.10;99.90;;;;;;4982683;28;20042;-34
2023/07/25 11:16:42;;;;;;;2.45;0.30;;;21.20;99.90;;;;;;4986539;28;20046;-34
2023/07/25 11:19:09;;;;;;;2.15;0.40;;;21.30;99.90;;;;;;4987766;28;20423;-34
2023/07/25 11:21:43;;;;;;;1.38;0.22;;;21.40;99.90;;;;;;4987164;28;20081;-34
2023/07/25 11:24:11;;;;;;;1.88;0.63;;;21.40;99.90;;;;;;4986053;28;20169;-35
2023/07/25 11:26:37;;;;;;;3.72;0.47;;;21.50;99.90;;;;;;4984442;28;20105;-34
2023/07/25 11:29:04;;;;;;;2.25;0.32;;;21.50;99.90;;;;;;4987503;28;20107;-34
2023/07/25 11:31:30;;;;;;;2.33;0.77;;;21.50;99.90;;;;;;4982232;28;20562;-34
2023/07/25 11:33:56;;;;;;;2.03;0.30;;;21.70;99.90;;;;;;4985352;28;20050;-34
2023/07/25 11:36:22;;;;;;;2.00;0.43;;;21.80;99.90;;;;;;4986364;28;20490;-35
2023/07/25 11:38:55;;;;;;;3.47;0.30;;;21.80;99.90;;;;;;4983562;28;20467;-34
2023/07/25 11:41:21;;;;;;;2.65;0.25;;;21.80;99.90;;;;;;4984144;28;20096;-33
2023/07/25 11:43:47;;;;;;;1.55;0.28;;;21.90;99.90;;;;;;4984337;28;20459;-34
2023/07/25 11:46:15;;;;;;;1.00;0.30;;;21.90;99.90;;;;;;4985141;28;20057;-34
2023/07/25 11:48:41;;;;;;;1.23;0.35;;;21.90;99.90;;;;;;4985448;28;20054;-35
2023/07/25 11:51:06;;;;;;;2.03;0.35;;;21.90;99.90;;;;;;4983037;28;20414;-34
2023/07/25 11:53:32;;;;;;;1.83;0.30;;;21.80;99.90;;;;;;4984851;28;20074;-35
2023/07/25 11:56:00;;;;;;;1.65;0.28;;;21.60;99.90;;;;;;4986591;28;20056;-34
2023/07/25 11:58:25;;;;;;;1.08;0.30;;;21.50;99.90;;;;;;4985181;28;20100;-35
2023/07/25 12:00:54;;;;;;;3.05;0.30;;;21.40;99.90;;;;;;4985541;28;20054;-35
2023/07/25 12:03:22;;;;;;;2.78;0.30;;;21.50;99.90;;;;;;4983504;28;20053;-34
2023/07/25 12:05:59;;;;;;;2.28;0.60;;;21.60;99.90;;;;;;4984457;28;20050;-34
2023/07/25 12:08:42;;;;;;;1.73;0.40;;;21.50;99.90;;;;;;4983597;28;20066;-34
2023/07/25 12:11:10;;;;;;;2.35;0.25;;;21.40;99.90;;;;;;4984225;28;20069;-34
2023/07/25 12:13:49;;;;;;;2.85;0.30;;;21.50;99.90;;;;;;4988158;28;20518;-34
2023/07/25 12:16:30;;;;;;;1.98;0.30;;;21.40;99.90;;;;;;4984306;28;20439;-34
2023/07/25 12:19:01;;;;;;;2.13;0.30;;;21.50;99.90;;;;;;4986370;28;20407;-34
2023/07/25 12:21:31;;;;;;;2.17;0.30;;;21.70;99.90;;;;;;4985789;28;20050;-34
2023/07/25 12:24:00;;;;;;;4.32;0.77;;;21.80;99.90;;;;;;4984414;28;20411;-34
2023/07/25 12:26:38;;;;;;;2.22;0.40;;;21.90;99.90;;;;;;4988804;28;20503;-33
2023/07/25 12:29:12;;;;;;;2.35;0.40;;;21.90;99.90;;;;;;4982147;28;22003;-33
2023/07/25 12:31:38;;;;;;;4.03;0.30;;;21.90;99.90;;;;;;4982464;28;20078;-34
2023/07/25 12:34:04;;;;;;;1.33;0.40;;;21.70;99.90;;;;;;4985875;28;20140;-34
2023/07/25 12:36:29;;;;;;;0.95;0.25;;;21.50;99.90;;;;;;4968042;28;20054;-34
2023/07/25 12:38:55;;;;;;;3.45;0.38;;;21.30;99.90;;;;;;4987679;28;20054;-33
2023/07/25 12:41:22;;;;;;;3.83;0.30;;;21.20;99.90;;;;;;4988231;28;20125;-34
2023/07/25 12:43:48;;;;;;;2.67;0.30;;;21.10;99.90;;;;;;4984544;28;20046;-34
2023/07/25 12:46:14;;;;;;;0.80;0.20;;;21.00;99.90;;;;;;4984954;28;20062;-34
2023/07/25 12:48:39;;;;;;;1.35;0.28;;;21.00;99.90;;;;;;4987516;28;20078;-34